Terminal Aerodrome Forecast
Issued by NWS Sioux Falls, SD

Home | Current Version | Previous Version | Graphics & Text | Print | Product List | Glossary On
Versions: 1 2 3 4 5 6 7 8 9 10 11 12 13 14 15 16
000
FTUS43 KFSD 202200 AAA
TAFSUX
TAF AMD
KSUX 202212Z 2022/2118 19012KT P6SM SCT080 OVC150
      TEMPO 2022/2101 TSRA BKN060CB
     FM210100 17006KT P6SM BKN080
     FM210700 31007KT P6SM -SHRA BKN060
     FM211400 35017G26KT P6SM SKC=

USA.gov is the U.S. government's official web portal to all federal, state and local government web resources and services.